Squad war stats
Faction Empire
Rank 1753
TrueSkill™ 27,998
Reputation 18,395
Wars 214
Wins 170
Draws 26
Losses 18
Uplinks captured 9,268
Uplinks saved 4,627
Last updated 3 minutes ago
Mu 28.812
Sigma 0.232
Last War today
Current War Havoc_Recon
Battle history
Date Opp. skill Opponent Result Score Opp. score Skill result Skill before Mu before Sigma before
2019-01-21 102% Templar_Origins WIN 45 22 +638 27360 28.531 0.335
2019-01-11 110% IngloriousRebėls LOSS 29 45 0 27990 28.531 0.155
2019-01-08 101% Deutsch+aktiv LOSS 41 44 +64 27926 28.721 0.227
2018-12-31 103% RebeL DRAW 45 45 0 27926 28.721 0.227
2018-12-23 97% German-BOLLWERK LOSS 43 45 -525 28451 29.874 0.406
2018-12-17 100% GUARDIANSOFTHE DRAW 45 45 0 28451 29.874 0.406
2018-12-13 100% РусскиеRU WIN 45 27 +2 28449 29.874 0.407
2018-12-04 100% Galaxy_of_Heroes WIN 45 30 +2 28447 29.873 0.407
2018-11-30 100% Greek_Spirit WIN 45 44 +3 28444 29.873 0.408
2018-11-22 99% BOMBSQUAD WIN 45 1 0 28444 29.873 0.408
2018-11-19 97% Deutsch'15 WIN 45 40 +59 28385 29.858 0.421
2018-11-14 100% RedDragon19.1 WIN 45 3 +1 28384 29.858 0.421
2018-11-12 99% BlackCatForce WIN 45 30 +4 28380 29.858 0.422
2018-11-05 101% Deutsche-Falken DRAW 45 45 0 28870 29.858 0.282
2018-11-02 95% Deutsch+aktiv2 WIN 42 21 +89 28781 29.814 0.295
2018-10-29 95% BattleRaxChaos WIN 45 20 +7 28774 29.812 0.297
2018-10-23 98% RebelsReborn WIN 45 34 0 28774 29.812 0.297
2018-10-20 94% PhoenixAwkns_Aca WIN 45 42 +19 28755 29.806 0.300
2018-10-18 101% Greek_Spirit WIN 34 20 +323 28432 29.700 0.362
2018-10-13 99% YodasMarines DRAW 45 45 0 28432 29.700 0.362
2018-10-08 101% HamburgAlliance2 LOSS 38 41 +17 28415 29.734 0.377
2018-10-01 98% HamburgAlliance2 LOSS 33 36 0 28415 29.805 0.397
2018-09-23 98% WORLDVIRUS6-UK- WIN 45 33 0 28905 29.805 0.257
2018-09-19 88% Jedi-Rebellion DRAW 45 45 0 28905 29.805 0.257
2018-09-17 99% Jedi-Warlords WIN 45 44 0 28905 29.805 0.257
2018-09-12 97% SudamericanJedi2 WIN 45 14 0 28905 29.805 0.257
2018-09-10 88% France-Dagobah-2 DRAW 45 45 0 28905 29.805 0.257
2018-09-04 104% Spanish_Rebels_2 DRAW 45 45 0 28905 29.805 0.257
2018-08-31 96% MagyarBFSM DRAW 45 45 0 28905 29.805 0.257
2018-08-29 97% DEUTSCH WIN 45 36 +9 28896 29.803 0.259
2018-08-27 92% Death_Striker WIN 45 25 +1 28895 29.803 0.259
2018-08-23 98% AllAdmiralsSquad WIN 45 3 0 28895 29.803 0.259
2018-08-21 97% Italia-HanSolo2 DRAW 45 45 0 28895 29.803 0.259
2018-08-15 97% POLSKA--WIN-905 WIN 45 12 0 28895 29.803 0.259
2018-08-13 100% УкраинаКиев WIN 45 34 +5 28890 29.802 0.260
2018-08-11 102% RUS-ВИТЯЗИacadem DRAW 45 45 0 28890 29.802 0.260
2018-08-08 98% FinnLuke WIN 45 22 0 28890 29.802 0.260
2018-08-06 95% FIN-DrunkenDroid DRAW 45 45 0 28890 29.802 0.260
2018-08-01 82% French'Warrior's WIN 45 17 +12 28878 29.795 0.262
2018-07-30 98% ozzydog WIN 45 21 0 28878 29.795 0.262
2018-07-26 101% RedSquadron383 WIN 43 12 +16 28862 29.792 0.266
2018-07-23 101% НовоРоссия WIN 45 42 +340 28522 29.685 0.332
2018-07-18 99% nonz WIN 45 13 0 28522 29.685 0.332
2018-07-15 87% SpaceMiners WIN 45 28 +94 28428 29.608 0.337
2018-07-12 99% Windows_Rejects2 WIN 45 44 +43 28385 29.599 0.347
2018-07-09 1% MastersReborn WIN 45 0 +4 28381 29.596 0.347
2018-07-04 99% Angband WIN 45 4 0 28381 29.596 0.347
2018-07-02 101% JediJumpCrew DRAW 45 45 0 28381 29.596 0.347
2018-06-25 87% Ita-force WIN 45 0 +7 28864 29.592 0.208
2018-06-19 89% BELGES WIN 45 8 +1 28863 29.592 0.208
2018-06-12 88% GermanRebs WIN 45 41 +1 29352 29.591 0.068
2018-06-06 101% RogueEwokReturn WIN 45 20 +94 29258 29.564 0.087
2018-06-04 89% GermanRebs WIN 45 38 +3 29255 29.561 0.087
2018-06-01 98% Yoda's-Rebellion WIN 45 40 0 29255 29.561 0.087
2018-05-29 91% Fishsticksdinner WIN 45 2 0 29255 29.561 0.087
2018-05-26 102% PartylikePorkins LOSS 28 36 +32 29223 29.579 0.102
2018-05-17 93% France-Dagobah DRAW 45 45 0 29223 29.579 0.102
2018-05-14 52% Ace13 WIN 45 3 +1 29222 29.578 0.102
2018-05-10 98% Reb.Allianz WIN 45 1 0 29222 29.578 0.102
2018-05-08 97% SlayingTroopers WIN 45 5 0 29222 29.578 0.102
2018-05-04 99% Britain2.0 WIN 45 14 0 29222 29.578 0.102
2018-05-01 98% Yoda's-Rebellion WIN 45 34 0 29222 29.578 0.102
2018-04-25 97% PMELians WIN 45 6 0 29222 29.578 0.102
2018-04-22 97% Deutsch+aktiv3 WIN 45 7 0 29222 29.578 0.102
2018-04-17 95% Ackbar's_Fist WIN 45 23 0 29222 29.578 0.102
2018-04-14 97% PMELians WIN 45 35 0 29222 29.578 0.102
2018-04-09 97% Active_Group WIN 45 5 0 29222 29.578 0.102
2018-04-04 100% Greek_Spirit LOSS 44 45 -352 29574 30.966 0.398
2018-03-29 97% RUS-ВИТЯЗИacadem WIN 45 14 0 29574 30.966 0.398
2018-03-24 93% Deutsch+aktiv2 WIN 45 0 0 29574 30.966 0.398
2018-03-18 99% RedSquadron383 WIN 40 23 +1 29573 30.966 0.398
2018-03-15 93% Itadreams WIN 45 3 +3 29570 30.965 0.399
2018-03-11 100% Force3000 WIN 45 37 +2 29568 30.965 0.399
2018-03-05 106% Jedi-Jawas WIN 33 32 +1,045 28523 30.609 0.596
2018-03-01 105% Yoda's-Rebellion WIN 36 25 +474 28049 30.487 0.697
2018-02-21 100% Ewoks-revenge WIN 43 20 +5 28534 30.486 0.558
2018-02-14 98% New-Omega-Chaos DRAW 45 45 0 29024 30.486 0.418
2018-02-05 96% FrancEvolution LOSS 18 45 -2 29586 30.492 0.259
2018-02-01 97% POLSKA--WIN-905 WIN 45 33 0 29586 30.492 0.259
2018-01-29 96% FrancEvolution LOSS 31 40 -2 29588 30.498 0.260
2018-01-22 98% SamuraiHunters WIN 45 28 +23 29565 30.493 0.265
2018-01-20 98% KingWalkers WIN 45 18 0 29565 30.493 0.265
2018-01-18 102% Jedi-Jawas DRAW 45 45 0 29565 30.493 0.265
2018-01-14 104% SkywalkersPride WIN 44 39 +689 28876 30.256 0.394
2018-01-07 98% FulginKnights WIN 45 23 0 29366 30.256 0.254
2018-01-04 102% SkywalkersPride DRAW 45 45 0 29366 30.256 0.254
2017-12-29 97% BRASIL(REBELDES) WIN 45 17 0 29366 30.256 0.254
2017-12-21 99% FrenchAlliance WIN 45 21 +19 29347 30.252 0.259
2017-12-18 99% FrenchAlliance WIN 38 27 +21 29326 30.248 0.263
2017-12-14 97% n7wraithsquadron WIN 45 19 0 29326 30.248 0.263
2017-12-11 99% BattleRaxDestroy WIN 42 23 +84 29242 30.226 0.281
2017-12-05 95% La-Section-9 WIN 45 15 +8 29234 30.224 0.283
2017-12-01 99% Ultimate-Rebels WIN 45 0 0 29234 30.224 0.283
2017-11-23 98% Royal_Rebelz WIN 45 42 0 29794 30.224 0.123
2017-11-20 96% RS-Force WIN 45 1 0 29794 30.224 0.123
2017-11-15 94% FulginKnights WIN 45 16 +1 29793 30.223 0.123
2017-11-12 97% A.Motley.Crew WIN 45 5 0 29793 30.223 0.123
2017-11-08 96% Erben-der-Jedi WIN 45 2 0 29793 30.223 0.123
2017-11-03 98% ActiveDonatorYMW WIN 42 23 0 29793 30.223 0.123
2017-10-31 101% SkywalkersPride WIN 35 28 +258 29535 30.053 0.148
2017-10-28 100% RedSquadron383 WIN 44 23 +50 29485 30.039 0.159
2017-10-25 100% Donate-n-Strike LOSS 26 27 -129 29614 30.810 0.342
2017-10-22 99% РУССКИЕ_ВМЕСТЕ WIN 40 32 +3 29611 30.809 0.342
2017-10-19 103% RUS•JEDI WIN 45 23 +504 29107 30.658 0.443
2017-10-15 89% Spain_vuelo WIN 45 7 +2 29105 30.658 0.444
2017-10-12 95% Greek_Spirit WIN 45 0 +96 29009 30.627 0.462
2017-10-09 111% Havoc_Sentinels DRAW 45 45 0 29009 30.627 0.462
2017-10-05 96% espana015 WIN 45 1 +1 29008 30.627 0.463
2017-10-02 103% Deutsche-Falken DRAW 45 45 0 29008 30.627 0.463
2017-09-11 87% France-Knight:-) WIN 45 42 +78 28930 30.588 0.474
2017-09-07 96% Rebelles_Gaulois WIN 45 28 +142 28788 30.541 0.501
2017-09-02 98% RebeIIion LOSS 42 45 -104 28892 31.124 0.638
2017-08-28 101% SpaceBarons2 WIN 45 21 +38 28854 31.118 0.647
2017-08-23 105% BarefootPhoenix WIN 39 36 +570 28284 30.965 0.766
2017-08-14 99% OldRepublic6 WIN 45 0 +5 28839 30.965 0.607
2017-08-05 98% Havoc_Legends WIN 45 4 +2 29397 30.964 0.448
2017-08-02 98% German|Reb|ü30 WIN 42 23 +22 29375 30.960 0.453
2017-07-27 101% Clone_Killers WIN 45 32 +326 29049 30.869 0.520
2017-07-24 100% force:of:nature WIN 38 24 +52 28997 30.860 0.532
2017-07-18 98% RUS-ВИТЯЗИ DRAW 45 45 0 28997 30.860 0.532
2017-07-14 101% Deutsch+aktiv WIN 45 18 +452 28545 30.724 0.623
2017-07-10 99% jedi_wraith WIN 45 0 +83 28462 30.707 0.641
2017-07-03 100% Padawan_Learner WIN 43 40 +234 28368 30.649 0.652
2017-06-29 96% German'Orion WIN 45 0 +3 28505 30.649 0.613
2017-06-24 96% WookiesRampage WIN 45 0 +2 28678 30.648 0.563
2017-06-21 100% theCave WIN 45 38 +256 28527 30.581 0.587
2017-06-19 97% RS-Force WIN 45 0 +14 28583 30.579 0.570
2017-06-14 95% RiseOfTheRaven WIN 45 0 +4 28754 30.578 0.521
2017-06-05 96% CAnaDA WIN 45 0 +2 29067 30.578 0.432
2017-05-30 97% KingWalkers WIN 45 2 +5 29237 30.577 0.383
2017-05-26 96% Madridatope WIN 45 18 +7 29405 30.575 0.334
2017-05-22 95% Elite_Camp WIN 45 6 +1 29544 30.575 0.295
2017-05-19 96% roguesofalderaan WIN 43 22 +5 29574 30.574 0.286
2017-05-16 97% RedSquadron383 WIN 40 25 0 29749 30.574 0.236
2017-05-10 109% FrancEvolution DRAW 43 43 +1,035 28889 29.671 0.223
2017-05-07 121% W.A.R.United LOSS 22 45 0 29029 29.671 0.183
2017-05-03 98% Rogue-:-Squadron WIN 42 6 0 29204 29.671 0.133
2017-04-30 95% Gouda-Prime LOSS 40 42 -1,359 30598 31.851 0.358
2017-04-26 93% Rogue-:-Squadron WIN 45 14 0 30773 31.851 0.308
2017-04-20 92% German's-Alli.2 WIN 45 2 0 30983 31.851 0.248
2017-04-13 95% Sparta-Battalion WIN 43 34 0 30983 31.851 0.248
2017-04-09 96% SkywalkersPride WIN 44 23 0 30983 31.851 0.248
2017-04-06 93% M.Y.T.H.3 WIN 45 2 0 30983 31.851 0.248
2017-04-01 97% FalloftheEmpire WIN 45 18 0 30983 31.851 0.248
2017-03-29 96% SkywalkersPride DRAW 45 45 0 30983 31.851 0.248
2017-03-27 94% 1st_ORDER4 WIN 45 42 0 30983 31.851 0.248
2017-03-22 103% havoc_jedi LOSS 39 41 +30 30953 31.865 0.260
2017-03-20 95% DR3 WIN 45 26 0 30953 31.865 0.260
2017-03-11 95% FulginKnights WIN 44 9 0 30953 31.865 0.260
2017-03-06 94% ALPHA-REBELLION WIN 40 34 0 30953 31.865 0.260
2017-03-03 95% Dutch-Rebels WIN 45 19 0 30953 31.865 0.260
2017-02-28 105% Force_Unleashed LOSS 42 45 0 30953 31.865 0.260
2017-02-23 97% Clone_Killers WIN 45 30 0 30953 31.865 0.260
2017-02-19 92% UkrJedis WIN 41 2 0 30953 31.865 0.260
2017-02-13 94% Francais:-) WIN 41 5 0 30953 31.865 0.260
2017-02-04 94% Brasil'Sagas WIN 45 2 0 30953 31.865 0.260
2017-01-31 94% Wookipedia_Inc. WIN 45 0 0 30953 31.865 0.260
2017-01-28 96% Spanish_Rebels_2 DRAW 45 45 0 30953 31.865 0.260
2017-01-23 95% HamburgAlliance2 WIN 45 38 0 30953 31.865 0.260
2017-01-18 95% Empire's_end WIN 39 33 0 30953 31.865 0.260
2017-01-14 99% Dragon-Battalion WIN 45 43 +3 30950 31.864 0.261
2017-01-11 45% Imperio WIN 45 3 0 30950 31.864 0.261
2017-01-08 92% 777RebelAlliance WIN 45 9 0 30950 31.864 0.261
2017-01-06 94% RUSREBEL WIN 45 19 0 30950 31.864 0.261
2017-01-02 97% Death_shadow3 WIN 45 31 0 30950 31.864 0.261
2016-12-29 95% German-BOLLWERK WIN 40 14 0 30950 31.864 0.261
2016-12-27 95% WookieWarWagon WIN 45 3 0 30950 31.864 0.261
2016-12-22 95% Dansk_daglig WIN 45 0 0 30950 31.864 0.261
2016-12-19 103% ULTRAS-Phoenix WIN 33 25 +590 30360 31.411 0.300
2016-12-17 94% UkrJedis WIN 45 0 0 30360 31.411 0.300
2016-12-12 98% France★R3born WIN 45 35 0 30360 31.411 0.300
2016-12-07 96% Sharethelove WIN 45 0 0 30360 31.411 0.300
2016-12-03 97% Jedi'Jawas WIN 45 16 0 30360 31.411 0.300
2016-11-30 95% Swedenarmy WIN 45 0 0 30360 31.411 0.300
2016-11-28 99% havoc_rebellion WIN 42 27 +1 30359 31.411 0.301
2016-11-24 109% RED_SQUADRON_ DRAW 45 45 0 30359 31.411 0.301
2016-11-21 103% Wolf-Battalion LOSS 39 45 +14 30345 31.421 0.307
2016-11-17 99% Czech.Prometheus WIN 45 40 +104 30241 31.392 0.329
2016-11-15 97% Japan☆Force™ WIN 45 31 0 30241 31.392 0.329
2016-11-12 98% Ice_Mayhem WIN 38 37 +29 30212 31.386 0.335
2016-11-10 98% BarefootPhoenix WIN 45 33 +4 30208 31.385 0.336
2016-11-07 85% ALLIANCE)(ELITE WIN 45 0 0 30208 31.385 0.336
2016-11-05 95% Clone_Killers LOSS 37 40 -2,192 32400 36.927 1.294
2016-11-03 98% FalloftheEmpire WIN 45 15 +11 32389 36.925 1.296
2016-10-31 87% Yodasghost WIN 45 19 0 32389 36.925 1.296
2016-10-28 91% Rebel's-Prime WIN 45 1 0 32389 36.925 1.296
2016-10-23 91% Rebel_Leader WIN 45 4 0 32389 36.925 1.296
2016-10-20 87% DonateOrNotToBe WIN 45 1 0 32389 36.925 1.296
2016-10-17 79% HatakAlliance WIN 45 3 0 32389 36.925 1.296
2016-10-13 89% Iron_Rebels_Elit WIN 45 31 0 32389 36.925 1.296
2016-10-11 94% RUS•JEDI WIN 41 39 +21 32368 36.922 1.301
2016-10-08 90% РусскиеRU WIN 43 27 0 32368 36.922 1.301
2016-10-06 93% JEDIKNIGHT DRAW 45 45 0 32368 36.922 1.301
2016-10-03 0% spain WIN 45 7 +6 32362 36.919 1.302
2016-10-01 85% FallOfTheJedi WIN 42 18 0 32362 36.919 1.302
2016-09-26 81% SaberSquad1500+ WIN 45 10 0 32362 36.919 1.302
2016-09-23 86% New-Omega-Chaos WIN 45 5 0 32362 36.919 1.302
2016-09-21 65% Spanish-Alliance WIN 45 1 0 32362 36.919 1.302
2016-09-18 85% Jedi'Jawas WIN 45 0 0 32362 36.919 1.302
2016-09-16 82% alpha-chaos WIN 45 4 0 32362 36.919 1.302
2016-09-12 100% Jedi_Remnant WIN 45 42 +672 31690 36.736 1.442
2016-09-09 80% ShadyRebellion24 WIN 45 18 0 31690 36.736 1.442
2016-08-25 89% Rebels_Union WIN 45 1 +1 31689 36.736 1.442
2016-08-21 74% Rey_Kenobi WIN 45 9 0 31689 36.736 1.442
2016-08-14 72% Rebel'Horde WIN 45 38 +21 31668 36.730 1.446
2016-08-11 92% jEDI WIN 45 30 +275 31393 36.660 1.505
2016-08-09 160% Marauders-Echo30 DRAW 40 40 +11,489 19904 31.901 3.428
2016-07-29 136% Deutsche-Falken DRAW 45 45 0 19904 31.901 3.428
2016-07-26 69% Division.francai WIN 45 3 +1,970 17934 31.174 3.783
2016-07-22 127% Seekers_Of_Light WIN 37 14 +4,321 13613 29.772 4.617
2016-07-13 51% Spanish-Alliance WIN 44 14 +2,267 11346 29.041 5.056
2016-07-07 207% Marauders-Alpha LOSS 33 45 +1,416 9930 31.100 6.049
2016-07-01 65% force:of:nature WIN 45 6 +4,310 5620 29.702 6.880
2016-06-23 100% DonateOrNotToBe WIN 45 4 +5,620 0 25.000 8.333
*Note: Wars from before June 22nd 2016 are not included.